Time;durP1;ratioP1;P1;durP2;ratioP2;P2;SDS_P1;SDS_P2;PMS_P1;PMS_P2;Temp;Humidity;BMP_temperature;BMP_pressure;BME280_temperature;BME280_humidity;BME280_pressure;Samples;Min_cycle;Max_cycle;Signal;HPM_P1;HPM_P2
2023/02/21 02:14:23;;;;;;;2.93;1.67;;;8.50;1.00;;;;;;4387799;28;655370;-75
2023/02/21 02:17:13;;;;;;;4.22;2.10;;;8.50;1.00;;;;;;4369658;28;655942;-74
2023/02/21 02:20:30;;;;;;;4.90;1.83;;;8.40;1.00;;;;;;4387115;28;655017;-75
2023/02/21 02:23:51;;;;;;;4.10;2.13;;;8.40;1.00;;;;;;4385200;28;655796;-74
2023/02/21 02:27:06;;;;;;;5.87;2.33;;;8.30;1.00;;;;;;4331522;28;655683;-76
2023/02/21 02:30:27;;;;;;;4.95;1.90;;;8.10;1.00;;;;;;4383458;28;656362;-76
2023/02/21 02:33:56;;;;;;;5.07;2.13;;;8.00;1.00;;;;;;4372893;28;655845;-76
2023/02/21 02:36:46;;;;;;;3.80;2.20;;;7.90;3.80;;;;;;4362366;28;656138;-76
2023/02/21 02:39:38;;;;;;;4.57;2.63;;;7.80;99.90;;;;;;4375980;28;656372;-76
2023/02/21 02:42:34;;;;;;;2.80;2.20;;;7.90;99.90;;;;;;4370034;28;656399;-74
2023/02/21 02:45:25;;;;;;;5.67;2.63;;;7.80;99.90;;;;;;4382212;28;656880;-76
2023/02/21 02:48:15;;;;;;;4.57;2.70;;;7.80;99.90;;;;;;4390152;28;657330;-76
2023/02/21 02:51:02;;;;;;;4.63;2.00;;;7.70;99.90;;;;;;4389160;28;657337;-74
2023/02/21 02:53:51;;;;;;;3.43;1.73;;;7.70;1.00;;;;;;4417302;28;656578;-77
2023/02/21 02:56:38;;;;;;;7.17;3.07;;;7.60;99.90;;;;;;4390635;28;656543;-76
2023/02/21 02:59:27;;;;;;;4.87;2.63;;;7.60;1.00;;;;;;4385475;28;656813;-75
2023/02/21 03:02:24;;;;;;;4.33;2.33;;;7.50;1.00;;;;;;4405101;28;655552;-75
2023/02/21 03:05:27;;;;;;;4.23;2.53;;;7.40;1.00;;;;;;4349034;28;656534;-79
2023/02/21 03:08:19;;;;;;;6.70;2.87;;;7.30;15.00;;;;;;4389794;28;655494;-74
2023/02/21 03:11:11;;;;;;;4.93;2.90;;;7.20;99.90;;;;;;4393107;28;656051;-74
2023/02/21 03:13:59;;;;;;;4.10;2.50;;;7.20;1.00;;;;;;4383574;28;657609;-74
2023/02/21 03:16:48;;;;;;;6.53;3.07;;;7.10;38.30;;;;;;4390486;28;655248;-74
2023/02/21 03:19:37;;;;;;;5.67;2.80;;;7.10;99.90;;;;;;4395802;28;656816;-74
2023/02/21 03:22:25;;;;;;;5.10;2.53;;;7.00;99.90;;;;;;4412829;28;656487;-75
2023/02/21 03:25:12;;;;;;;5.83;2.97;;;7.10;99.90;;;;;;4394852;28;656789;-74
2023/02/21 03:28:01;;;;;;;4.70;2.27;;;7.00;99.90;;;;;;4417892;28;656931;-75
2023/02/21 03:30:49;;;;;;;3.78;2.20;;;7.00;99.90;;;;;;4392468;28;657555;-75
2023/02/21 03:33:36;;;;;;;4.30;2.30;;;7.10;99.90;;;;;;4390010;28;657007;-74
2023/02/21 03:36:23;;;;;;;3.63;1.90;;;7.00;99.90;;;;;;4413196;28;657260;-73
2023/02/21 03:39:10;;;;;;;3.13;2.07;;;7.00;99.90;;;;;;4389403;28;657157;-73
2023/02/21 03:41:58;;;;;;;4.97;2.30;;;7.00;99.90;;;;;;4400828;28;657300;-74
2023/02/21 03:44:47;;;;;;;3.45;2.28;;;7.00;99.90;;;;;;4393040;28;657381;-74
2023/02/21 03:47:34;;;;;;;3.27;2.10;;;7.00;99.90;;;;;;4414994;28;656404;-75
2023/02/21 03:50:21;;;;;;;4.70;2.80;;;7.00;99.90;;;;;;4389073;28;657460;-74
2023/02/21 03:53:09;;;;;;;4.53;2.40;;;7.10;99.90;;;;;;4400983;28;656952;-74
2023/02/21 03:55:56;;;;;;;3.70;2.27;;;7.10;99.90;;;;;;4385613;28;656635;-75
2023/02/21 03:58:43;;;;;;;5.60;2.70;;;7.10;99.90;;;;;;4402239;28;657622;-75
2023/02/21 04:01:32;;;;;;;6.10;2.43;;;7.10;99.90;;;;;;4392178;28;656779;-75
2023/02/21 04:04:19;;;;;;;5.67;2.70;;;7.10;99.90;;;;;;4411177;28;656511;-75
2023/02/21 04:07:07;;;;;;;3.57;1.60;;;7.10;99.90;;;;;;4387592;28;656461;-75
2023/02/21 04:09:54;;;;;;;6.87;3.10;;;7.00;99.90;;;;;;4412770;28;657138;-73
2023/02/21 04:12:41;;;;;;;2.83;2.10;;;6.90;99.90;;;;;;4391958;28;656518;-72
2023/02/21 04:15:28;;;;;;;3.37;2.57;;;6.90;99.90;;;;;;4412049;28;657241;-74
2023/02/21 04:18:17;;;;;;;2.43;1.80;;;6.90;99.90;;;;;;4385990;28;656579;-74
2023/02/21 04:21:05;;;;;;;3.53;2.23;;;6.90;99.90;;;;;;4415848;28;656962;-74
2023/02/21 04:23:52;;;;;;;5.60;2.17;;;6.90;99.90;;;;;;4388985;28;657465;-74
2023/02/21 04:26:39;;;;;;;3.37;2.00;;;6.90;99.90;;;;;;4415276;28;656278;-74
2023/02/21 04:29:26;;;;;;;4.67;1.93;;;6.90;99.90;;;;;;4389354;28;656427;-73
2023/02/21 04:32:14;;;;;;;2.53;1.77;;;6.90;99.90;;;;;;4401346;28;656742;-75
2023/02/21 04:35:02;;;;;;;2.43;2.10;;;6.90;99.90;;;;;;4377236;28;656706;-75
2023/02/21 04:37:49;;;;;;;6.00;2.07;;;6.90;99.90;;;;;;4388086;28;656462;-75
2023/02/21 04:40:37;;;;;;;2.90;2.00;;;6.90;99.90;;;;;;4377095;28;656932;-75
2023/02/21 04:43:24;;;;;;;2.80;2.03;;;6.90;99.90;;;;;;4410771;28;656065;-74
2023/02/21 04:46:14;;;;;;;3.33;2.30;;;6.90;99.90;;;;;;4388459;28;656872;-74
2023/02/21 04:49:01;;;;;;;3.00;2.20;;;6.90;99.90;;;;;;4387286;28;656895;-75
2023/02/21 04:51:50;;;;;;;3.37;2.30;;;6.90;99.90;;;;;;4412212;28;657255;-75
2023/02/21 04:54:37;;;;;;;3.70;1.90;;;7.00;99.90;;;;;;4381472;28;656823;-74
2023/02/21 04:57:25;;;;;;;2.63;1.83;;;6.90;99.90;;;;;;4409373;28;656306;-73
2023/02/21 05:00:13;;;;;;;5.23;2.27;;;7.00;99.90;;;;;;4407986;28;657197;-74
2023/02/21 05:03:01;;;;;;;2.00;1.67;;;7.00;99.90;;;;;;4392585;28;656549;-73
2023/02/21 05:05:48;;;;;;;2.45;1.90;;;6.90;99.90;;;;;;4411869;28;656782;-74
2023/02/21 05:08:37;;;;;;;2.23;1.67;;;6.90;99.90;;;;;;4384131;28;656422;-74
2023/02/21 05:11:24;;;;;;;2.07;1.50;;;6.90;99.90;;;;;;4409674;28;656895;-71
2023/02/21 05:14:11;;;;;;;2.57;2.23;;;6.80;99.90;;;;;;4386228;28;656348;-74
2023/02/21 05:16:59;;;;;;;3.00;1.80;;;6.80;99.90;;;;;;4399030;28;656647;-73
2023/02/21 05:19:46;;;;;;;2.90;2.07;;;6.80;99.90;;;;;;4386175;28;656875;-75
2023/02/21 05:22:37;;;;;;;2.73;1.50;;;6.80;99.90;;;;;;4399929;28;657203;-72
2023/02/21 05:25:26;;;;;;;3.93;2.37;;;6.80;99.90;;;;;;4382400;28;657123;-71
2023/02/21 05:28:13;;;;;;;3.50;1.67;;;6.80;99.90;;;;;;4388258;28;656989;-71
2023/02/21 05:31:00;;;;;;;2.95;2.28;;;6.70;99.90;;;;;;4398459;28;656620;-70
2023/02/21 05:33:47;;;;;;;5.40;2.43;;;6.70;99.90;;;;;;4403308;28;657339;-72
2023/02/21 05:36:35;;;;;;;3.60;2.00;;;6.70;99.90;;;;;;4400566;28;656478;-74
2023/02/21 05:39:22;;;;;;;3.17;2.10;;;6.70;99.90;;;;;;4402186;28;657150;-73
2023/02/21 05:42:12;;;;;;;2.63;2.13;;;6.70;99.90;;;;;;4401035;28;656835;-73
2023/02/21 05:44:59;;;;;;;3.53;1.87;;;6.70;99.90;;;;;;4394840;28;656601;-73
2023/02/21 05:47:46;;;;;;;5.47;2.30;;;6.70;99.90;;;;;;4397587;28;656577;-73
2023/02/21 05:50:33;;;;;;;6.83;3.53;;;6.70;99.90;;;;;;4415183;28;657135;-72
2023/02/21 05:53:21;;;;;;;4.57;2.73;;;6.70;99.90;;;;;;4378514;28;656481;-72
2023/02/21 05:56:08;;;;;;;6.30;4.50;;;6.70;99.90;;;;;;4406680;28;657622;-74
2023/02/21 05:58:57;;;;;;;4.77;3.37;;;6.80;99.90;;;;;;4388759;28;656424;-74
2023/02/21 06:01:44;;;;;;;6.90;4.20;;;6.70;99.90;;;;;;4415321;28;656162;-73
2023/02/21 06:04:31;;;;;;;9.40;4.27;;;6.70;99.90;;;;;;4390586;28;657383;-73
2023/02/21 06:07:18;;;;;;;8.17;3.80;;;6.70;99.90;;;;;;4390550;28;657298;-74
2023/02/21 06:10:06;;;;;;;10.13;5.60;;;6.70;99.90;;;;;;4386529;28;656413;-74
2023/02/21 06:12:53;;;;;;;10.00;5.97;;;6.70;99.90;;;;;;4405679;28;658257;-73
2023/02/21 06:15:42;;;;;;;15.17;7.00;;;6.70;99.90;;;;;;4378494;28;658049;-74
2023/02/21 06:18:29;;;;;;;10.80;6.60;;;6.70;99.90;;;;;;4391970;28;657466;-74
2023/02/21 06:21:16;;;;;;;7.30;5.10;;;6.70;99.90;;;;;;4386806;28;657790;-76
2023/02/21 06:24:04;;;;;;;10.73;5.73;;;6.70;99.90;;;;;;4408455;28;657168;-78
2023/02/21 06:26:51;;;;;;;11.95;6.13;;;6.70;99.90;;;;;;4382821;28;657529;-76
2023/02/21 06:29:38;;;;;;;13.50;6.80;;;6.70;99.90;;;;;;4410726;28;657962;-75
2023/02/21 06:32:27;;;;;;;10.53;5.90;;;6.70;99.90;;;;;;4386651;28;657694;-74
2023/02/21 06:35:14;;;;;;;13.20;7.60;;;6.70;99.90;;;;;;4408733;28;658213;-75
2023/02/21 06:38:02;;;;;;;8.43;4.83;;;6.70;99.90;;;;;;4387103;28;658047;-73
2023/02/21 06:40:49;;;;;;;11.00;6.27;;;6.70;99.90;;;;;;4403904;28;656512;-76
2023/02/21 06:43:36;;;;;;;11.68;6.28;;;6.80;99.90;;;;;;4391064;28;657561;-75
2023/02/21 06:46:24;;;;;;;15.47;7.97;;;6.80;99.90;;;;;;4410052;28;658100;-76
2023/02/21 06:49:13;;;;;;;12.57;7.53;;;6.80;99.90;;;;;;4384330;28;657899;-75
2023/02/21 06:52:00;;;;;;;11.40;6.27;;;6.80;99.90;;;;;;4391945;28;657615;-74
2023/02/21 06:54:50;;;;;;;17.07;8.87;;;6.80;99.90;;;;;;4404555;28;658099;-76
2023/02/21 06:57:37;;;;;;;12.47;6.33;;;6.70;99.90;;;;;;4388909;28;658584;-73
2023/02/21 07:00:25;;;;;;;12.87;7.93;;;6.70;99.90;;;;;;4409811;28;657619;-75
2023/02/21 07:03:12;;;;;;;18.47;7.93;;;6.80;99.90;;;;;;4381465;28;658158;-75
2023/02/21 07:06:02;;;;;;;13.57;8.50;;;6.80;99.90;;;;;;4401942;28;657957;-76
2023/02/21 07:08:49;;;;;;;12.17;7.33;;;6.80;99.90;;;;;;4413928;28;657808;-78
2023/02/21 07:11:36;;;;;;;12.90;7.57;;;6.80;99.90;;;;;;4389153;28;657445;-77
2023/02/21 07:14:23;;;;;;;14.15;7.53;;;6.80;99.90;;;;;;4412053;28;658033;-75
2023/02/21 07:17:10;;;;;;;13.97;7.57;;;6.90;99.90;;;;;;4378929;28;658539;-74
2023/02/21 07:19:58;;;;;;;15.27;7.67;;;6.90;99.90;;;;;;4396009;28;657499;-78
2023/02/21 07:22:47;;;;;;;14.95;7.47;;;6.90;99.90;;;;;;4391128;28;657900;-74
2023/02/21 07:25:34;;;;;;;13.17;7.70;;;6.90;99.90;;;;;;4399469;28;657561;-75
2023/02/21 07:28:21;;;;;;;11.47;6.47;;;6.90;99.90;;;;;;4390757;28;658292;-74
2023/02/21 07:31:09;;;;;;;12.45;6.80;;;6.90;99.90;;;;;;4404729;28;658192;-74
2023/02/21 07:33:56;;;;;;;12.57;7.00;;;7.00;99.90;;;;;;4374756;28;657246;-75
2023/02/21 07:36:44;;;;;;;9.27;4.93;;;7.00;99.90;;;;;;4407868;28;657619;-74
2023/02/21 07:39:32;;;;;;;10.63;7.17;;;7.00;99.90;;;;;;4394648;28;656319;-75
2023/02/21 07:42:20;;;;;;;10.10;5.20;;;7.00;99.90;;;;;;4409302;28;657573;-75
2023/02/21 07:45:07;;;;;;;10.43;5.80;;;7.10;99.90;;;;;;4397874;28;658162;-74
2023/02/21 07:47:55;;;;;;;11.03;6.20;;;7.10;99.90;;;;;;4408171;28;657802;-74
2023/02/21 07:50:43;;;;;;;9.83;5.23;;;7.10;99.90;;;;;;4409924;28;657467;-74
2023/02/21 07:53:30;;;;;;;10.73;4.20;;;7.10;99.90;;;;;;4389411;28;656149;-74
2023/02/21 07:56:19;;;;;;;8.50;4.83;;;7.20;99.90;;;;;;4404379;28;658484;-74
2023/02/21 07:59:06;;;;;;;6.47;4.20;;;7.20;99.90;;;;;;4380894;28;656276;-74
2023/02/21 08:01:54;;;;;;;8.60;4.70;;;7.20;99.90;;;;;;4409974;28;657988;-75
2023/02/21 08:04:41;;;;;;;8.77;5.03;;;7.30;99.90;;;;;;4393689;28;656726;-75
2023/02/21 08:07:29;;;;;;;7.63;4.83;;;7.30;99.90;;;;;;4412331;28;656743;-74
2023/02/21 08:10:20;;;;;;;14.60;5.63;;;7.30;99.90;;;;;;4377186;28;656859;-75
2023/02/21 08:13:08;;;;;;;7.73;4.80;;;7.40;99.90;;;;;;4389246;28;658598;-75
2023/02/21 08:15:56;;;;;;;7.60;4.67;;;7.50;99.90;;;;;;4382809;28;656588;-75
2023/02/21 08:18:43;;;;;;;6.73;5.37;;;7.50;99.90;;;;;;4406327;28;656539;-76
2023/02/21 08:21:30;;;;;;;6.97;5.32;;;7.60;99.90;;;;;;4391266;28;657168;-74
2023/02/21 08:24:18;;;;;;;6.33;4.43;;;7.70;1.00;;;;;;4415399;28;658153;-76
2023/02/21 08:27:05;;;;;;;7.60;4.50;;;7.80;1.00;;;;;;4387657;28;656642;-74
2023/02/21 08:29:54;;;;;;;7.33;5.07;;;7.80;1.00;;;;;;4412745;28;656115;-75
2023/02/21 08:32:42;;;;;;;6.73;5.20;;;7.90;1.00;;;;;;4390898;28;655967;-74
2023/02/21 08:35:29;;;;;;;6.13;4.23;;;7.90;1.00;;;;;;4406047;28;655127;-76
2023/02/21 08:38:18;;;;;;;8.13;4.87;;;7.90;99.90;;;;;;4395044;28;655513;-76
2023/02/21 08:41:05;;;;;;;7.47;4.93;;;7.90;99.90;;;;;;4385915;28;656635;-75
2023/02/21 08:43:53;;;;;;;7.23;4.83;;;8.00;99.90;;;;;;4412688;28;657585;-75
2023/02/21 08:46:42;;;;;;;6.95;5.07;;;8.00;99.90;;;;;;4388531;28;656078;-74
2023/02/21 08:49:29;;;;;;;6.23;4.60;;;8.00;99.90;;;;;;4409088;28;657093;-76
2023/02/21 08:52:17;;;;;;;7.83;4.17;;;8.10;1.00;;;;;;4375459;28;656981;-76
2023/02/21 08:55:04;;;;;;;7.13;4.83;;;8.10;1.00;;;;;;4401327;28;655619;-76
2023/02/21 08:57:52;;;;;;;5.97;3.83;;;8.10;1.00;;;;;;4372884;28;655773;-74
2023/02/21 09:00:40;;;;;;;7.63;5.07;;;7.90;99.90;;;;;;4395838;28;655716;-73
2023/02/21 09:03:29;;;;;;;8.67;5.80;;;7.80;1.00;;;;;;4414169;28;657117;-74
2023/02/21 09:06:16;;;;;;;7.90;5.63;;;7.80;1.00;;;;;;4374557;28;655221;-74
2023/02/21 09:09:03;;;;;;;7.87;4.73;;;7.80;1.00;;;;;;4391726;28;655985;-74
2023/02/21 09:11:51;;;;;;;9.07;6.37;;;7.70;15.70;;;;;;4367862;28;655606;-74
2023/02/21 09:14:38;;;;;;;10.90;6.13;;;7.80;1.00;;;;;;4387065;28;657526;-74
2023/02/21 09:17:25;;;;;;;10.45;7.68;;;7.90;1.00;;;;;;4375616;28;656638;-74
2023/02/21 09:20:16;;;;;;;12.10;7.90;;;7.90;1.00;;;;;;4396020;28;658189;-75
2023/02/21 09:23:03;;;;;;;12.27;8.03;;;8.00;1.00;;;;;;4365641;28;657522;-74
2023/02/21 09:25:52;;;;;;;12.27;8.53;;;8.00;1.00;;;;;;4375606;28;656998;-74
2023/02/21 09:28:42;;;;;;;10.40;7.43;;;8.10;1.00;;;;;;4398714;28;656716;-74
2023/02/21 09:31:29;;;;;;;9.03;5.97;;;8.00;1.00;;;;;;4366056;28;657113;-75
2023/02/21 09:34:16;;;;;;;13.30;7.10;;;8.10;1.00;;;;;;4373277;28;656300;-75
2023/02/21 09:37:06;;;;;;;9.67;5.60;;;8.20;1.00;;;;;;4395333;28;656887;-75
2023/02/21 09:39:53;;;;;;;8.43;5.63;;;8.20;1.00;;;;;;4374240;28;655575;-75
2023/02/21 09:42:40;;;;;;;8.70;5.57;;;8.30;99.90;;;;;;4375741;28;655367;-75
2023/02/21 09:45:30;;;;;;;7.83;4.50;;;8.40;1.00;;;;;;4395276;28;657558;-75
2023/02/21 09:48:18;;;;;;;7.13;4.30;;;8.50;1.00;;;;;;4372510;28;657050;-77
2023/02/21 09:51:06;;;;;;;6.63;4.63;;;8.70;99.90;;;;;;4381884;28;655970;-75
2023/02/21 09:53:56;;;;;;;6.60;4.10;;;9.10;1.00;;;;;;4400881;28;657056;-76
2023/02/21 09:56:43;;;;;;;4.23;3.20;;;9.30;1.00;;;;;;4393774;28;656309;-75
2023/02/21 09:59:31;;;;;;;7.00;3.60;;;9.30;99.90;;;;;;4392968;28;655786;-74
2023/02/21 10:02:27;;;;;;;5.53;3.60;;;9.30;1.00;;;;;;4407071;28;657297;-75
2023/02/21 10:05:21;;;;;;;6.13;3.20;;;9.10;1.00;;;;;;4375437;28;655890;-74
2023/02/21 10:08:13;;;;;;;6.17;3.60;;;8.90;1.00;;;;;;4393118;28;655625;-75
2023/02/21 10:11:03;;;;;;;4.87;2.63;;;9.30;1.00;;;;;;4366647;28;655606;-75
2023/02/21 10:13:53;;;;;;;4.20;2.37;;;9.60;99.90;;;;;;4393159;28;655594;-75
2023/02/21 10:16:42;;;;;;;6.80;3.17;;;9.90;1.00;;;;;;4396399;28;656957;-75
2023/02/21 10:19:31;;;;;;;6.00;2.90;;;9.90;99.90;;;;;;4393675;28;656189;-75
2023/02/21 10:22:20;;;;;;;5.03;2.87;;;10.40;1.00;;;;;;4398060;28;656492;-75
2023/02/21 10:25:20;;;;;;;4.90;2.90;;;10.70;99.90;;;;;;4384661;28;656923;-75
2023/02/21 10:28:09;;;;;;;4.43;2.80;;;10.40;99.90;;;;;;4359439;28;658429;-75
2023/02/21 10:30:58;;;;;;;5.93;3.00;;;9.80;1.00;;;;;;4391107;28;657544;-77
2023/02/21 10:33:45;;;;;;;5.10;3.27;;;9.50;1.00;;;;;;4387317;28;655970;-75
2023/02/21 10:36:32;;;;;;;4.60;3.27;;;9.20;33.10;;;;;;4403429;28;656496;-77
2023/02/21 10:39:21;;;;;;;5.83;2.63;;;9.10;66.70;;;;;;4402413;28;656657;-77
2023/02/21 10:42:11;;;;;;;4.37;2.93;;;9.30;6.80;;;;;;4414355;28;657541;-77
2023/02/21 10:44:59;;;;;;;6.45;3.00;;;9.20;54.60;;;;;;4380142;28;655939;-78
2023/02/21 10:47:51;;;;;;;6.10;3.73;;;9.20;99.90;;;;;;4403921;28;656794;-74
2023/02/21 10:50:49;;;;;;;5.63;3.43;;;8.80;1.00;;;;;;4382816;28;658058;-74
2023/02/21 10:53:37;;;;;;;8.00;4.07;;;8.60;1.00;;;;;;4389017;28;656451;-74
2023/02/21 10:56:28;;;;;;;8.80;4.37;;;8.60;1.00;;;;;;4414030;28;655619;-75
2023/02/21 10:59:20;;;;;;;7.67;4.43;;;8.60;99.90;;;;;;4391896;28;655217;-75
2023/02/21 11:05:19;;;;;;;6.67;4.20;;;8.50;99.90;;;;;;4919297;27;131379;-73
2023/02/21 11:08:08;;;;;;;5.20;3.60;;;8.50;8.50;;;;;;4377303;28;650967;-73
2023/02/21 11:10:55;;;;;;;7.13;4.00;;;8.60;99.90;;;;;;4416766;28;648503;-73
2023/02/21 11:13:43;;;;;;;5.67;3.63;;;8.70;99.90;;;;;;4434847;28;650393;-73
2023/02/21 11:16:33;;;;;;;4.17;3.07;;;8.70;1.00;;;;;;4424296;28;649290;-73
2023/02/21 11:19:21;;;;;;;5.10;2.83;;;8.60;15.60;;;;;;4405361;28;648531;-73
2023/02/21 11:22:09;;;;;;;5.73;3.20;;;8.60;1.00;;;;;;4421661;28;650222;-72
2023/02/21 11:25:00;;;;;;;3.27;2.30;;;8.50;99.90;;;;;;4407204;28;649715;-73
2023/02/21 11:27:59;;;;;;;4.43;2.40;;;8.30;99.90;;;;;;4425329;28;651073;-75
2023/02/21 11:30:49;;;;;;;4.20;2.88;;;8.20;1.00;;;;;;4400300;28;650034;-75
2023/02/21 11:33:37;;;;;;;5.90;3.70;;;8.20;99.90;;;;;;4419302;28;650706;-74
2023/02/21 11:36:28;;;;;;;4.90;3.07;;;8.20;99.90;;;;;;4434846;28;651237;-72
2023/02/21 11:39:18;;;;;;;8.30;4.60;;;8.30;1.00;;;;;;4391996;28;651144;-73
2023/02/21 11:42:23;;;;;;;8.43;4.67;;;8.50;1.00;;;;;;4400864;28;650647;-73
2023/02/21 11:45:17;;;;;;;4.03;3.00;;;8.80;1.00;;;;;;4397706;28;650329;-71
2023/02/21 11:48:06;;;;;;;4.60;2.80;;;9.00;1.00;;;;;;4396681;28;650718;-71
2023/02/21 11:50:53;;;;;;;5.40;3.37;;;9.30;1.00;;;;;;4389541;28;651305;-73
2023/02/21 11:53:41;;;;;;;6.30;2.90;;;9.00;1.00;;;;;;4412301;28;650030;-74
2023/02/21 11:56:42;;;;;;;5.80;3.23;;;8.50;96.20;;;;;;4435389;28;650598;-72
2023/02/21 11:59:35;;;;;;;3.70;2.57;;;8.40;99.90;;;;;;4410932;28;651610;-73
2023/02/21 12:02:41;;;;;;;4.83;2.90;;;8.20;1.00;;;;;;4388184;28;651623;-73
2023/02/21 12:05:45;;;;;;;5.13;2.97;;;8.30;1.00;;;;;;4406680;28;651446;-71
2023/02/21 12:08:47;;;;;;;4.40;2.70;;;8.20;1.00;;;;;;4392028;28;651053;-73
2023/02/21 12:12:01;;;;;;;4.27;2.20;;;8.20;1.00;;;;;;4397557;28;650350;-72
2023/02/21 12:15:01;;;;;;;4.03;2.28;;;8.20;1.00;;;;;;4382082;28;650206;-74
2023/02/21 12:18:14;;;;;;;4.33;2.50;;;8.40;1.00;;;;;;4386589;28;650376;-72
2023/02/21 12:21:24;;;;;;;6.77;2.60;;;8.30;1.00;;;;;;4360304;28;651313;-71
2023/02/21 12:24:23;;;;;;;5.90;3.80;;;8.50;1.00;;;;;;4388595;28;650422;-76
2023/02/21 12:27:15;;;;;;;5.50;2.87;;;9.70;99.90;;;;;;4375952;28;651110;-73
2023/02/21 12:30:19;;;;;;;5.20;3.23;;;10.10;1.00;;;;;;4393724;28;651350;-74
2023/02/21 12:33:13;;;;;;;5.57;3.30;;;10.40;1.00;;;;;;4378245;28;651616;-73
2023/02/21 12:36:19;;;;;;;6.60;3.40;;;10.90;1.00;;;;;;4366142;28;651801;-73
2023/02/21 12:39:14;;;;;;;5.50;3.53;;;11.00;1.00;;;;;;4388561;28;651451;-73
2023/02/21 12:42:16;;;;;;;7.90;4.00;;;11.20;1.00;;;;;;4380730;28;651812;-73
2023/02/21 12:45:12;;;;;;;5.37;3.37;;;11.70;1.00;;;;;;4392539;28;651947;-72
2023/02/21 12:48:02;;;;;;;5.93;3.80;;;11.70;1.00;;;;;;4400766;28;651756;-73
2023/02/21 12:50:50;;;;;;;6.23;3.60;;;11.50;1.00;;;;;;4423825;28;651526;-73
2023/02/21 12:53:53;;;;;;;5.00;3.40;;;12.20;1.00;;;;;;4384429;28;652649;-73
2023/02/21 12:56:44;;;;;;;4.63;2.80;;;12.10;1.00;;;;;;4400181;28;651612;-72
2023/02/21 12:59:37;;;;;;;4.20;2.23;;;12.40;1.00;;;;;;4400226;28;651645;-72
2023/02/21 13:02:26;;;;;;;3.73;2.00;;;12.60;1.00;;;;;;4401327;28;651274;-73
2023/02/21 13:05:16;;;;;;;4.20;2.07;;;12.00;1.00;;;;;;4390242;28;651893;-75
2023/02/21 13:08:05;;;;;;;4.77;2.50;;;11.20;1.00;;;;;;4381658;28;652152;-75
2023/02/21 13:10:55;;;;;;;4.83;2.03;;;10.70;1.00;;;;;;4400910;28;651803;-76
2023/02/21 13:13:43;;;;;;;5.80;2.10;;;10.40;1.00;;;;;;4400419;28;652321;-74
2023/02/21 13:16:32;;;;;;;3.60;1.97;;;10.20;1.00;;;;;;4401663;28;651938;-73
2023/02/21 13:19:19;;;;;;;3.77;2.10;;;10.10;1.00;;;;;;4418016;28;651166;-73
2023/02/21 13:22:40;;;;;;;4.70;1.43;;;9.90;1.00;;;;;;4399894;28;651206;-72
2023/02/21 13:25:33;;;;;;;4.40;1.50;;;9.80;1.00;;;;;;4355874;28;650961;-73
2023/02/21 13:28:22;;;;;;;2.95;1.80;;;9.50;1.00;;;;;;4339389;28;650719;-72
2023/02/21 13:31:18;;;;;;;6.60;2.40;;;9.30;1.00;;;;;;4376020;28;649744;-74
2023/02/21 13:34:08;;;;;;;3.90;2.30;;;9.30;1.00;;;;;;4341400;28;650837;-73
2023/02/21 13:37:00;;;;;;;5.53;2.58;;;9.30;1.00;;;;;;4357154;28;650673;-73
2023/02/21 13:39:50;;;;;;;4.83;2.20;;;9.20;1.00;;;;;;4360393;28;651561;-73
2023/02/21 13:42:38;;;;;;;4.73;2.60;;;9.10;1.00;;;;;;4362444;28;651547;-73
2023/02/21 13:45:26;;;;;;;5.90;3.50;;;8.80;23.10;;;;;;4358704;28;650225;-73
2023/02/21 13:48:24;;;;;;;6.53;3.27;;;8.70;99.90;;;;;;4384514;28;652079;-73
2023/02/21 13:51:44;;;;;;;5.80;3.63;;;8.60;99.90;;;;;;4331960;28;651683;-73
2023/02/21 13:54:31;;;;;;;7.80;3.77;;;8.70;1.00;;;;;;4351937;28;652605;-72
2023/02/21 13:57:30;;;;;;;7.47;4.13;;;9.20;99.90;;;;;;4376951;28;652329;-73
2023/02/21 14:00:56;;;;;;;6.27;4.13;;;9.80;1.00;;;;;;4354994;28;652534;-73
2023/02/21 14:03:44;;;;;;;6.67;3.30;;;9.80;1.00;;;;;;4375732;28;652192;-72
2023/02/21 14:06:39;;;;;;;5.27;3.07;;;10.30;1.00;;;;;;4385444;28;651277;-73
2023/02/21 14:09:26;;;;;;;5.30;2.60;;;10.10;1.00;;;;;;4369764;28;652658;-72
2023/02/21 14:12:14;;;;;;;6.37;2.60;;;9.60;1.00;;;;;;4425476;28;652860;-73
2023/02/21 14:15:05;;;;;;;6.17;2.47;;;9.30;1.00;;;;;;4375313;28;652065;-73
2023/02/21 14:17:53;;;;;;;5.23;2.73;;;9.00;1.00;;;;;;4387512;28;651872;-73
2023/02/21 14:20:40;;;;;;;4.43;2.50;;;9.10;1.00;;;;;;4402939;28;651585;-73
2023/02/21 14:23:38;;;;;;;7.97;2.40;;;9.00;1.00;;;;;;4417974;28;651930;-72
2023/02/21 14:26:40;;;;;;;2.97;1.83;;;9.00;1.00;;;;;;4372591;28;652739;-73
2023/02/21 14:29:38;;;;;;;5.53;2.30;;;9.00;1.00;;;;;;4393240;28;651591;-72
2023/02/21 14:32:33;;;;;;;3.73;2.27;;;9.00;1.00;;;;;;4376282;28;651818;-73
2023/02/21 14:35:29;;;;;;;4.77;2.37;;;9.00;1.00;;;;;;4380340;28;651718;-73
2023/02/21 14:38:18;;;;;;;5.73;2.73;;;9.40;1.00;;;;;;4384909;28;651806;-73
2023/02/21 14:41:13;;;;;;;5.87;2.60;;;10.40;1.00;;;;;;4373492;28;651933;-73
2023/02/21 14:44:09;;;;;;;4.70;2.47;;;10.40;1.00;;;;;;4359195;28;652710;-73
2023/02/21 14:47:13;;;;;;;3.97;2.50;;;11.30;1.00;;;;;;4369626;28;652359;-73
2023/02/21 14:50:11;;;;;;;5.00;2.97;;;10.50;1.00;;;;;;4367736;28;653109;-73
2023/02/21 14:53:31;;;;;;;6.80;3.03;;;10.00;1.00;;;;;;4388443;28;652740;-73
2023/02/21 14:56:47;;;;;;;7.73;3.50;;;9.70;1.00;;;;;;4388690;28;652704;-72
2023/02/21 14:59:49;;;;;;;6.63;3.60;;;10.20;1.00;;;;;;4392667;28;652426;-73
2023/02/21 15:02:42;;;;;;;5.83;3.87;;;12.60;1.00;;;;;;4357286;28;652398;-73
2023/02/21 15:05:31;;;;;;;7.07;3.80;;;12.70;1.00;;;;;;4370098;28;652601;-73
2023/02/21 15:08:20;;;;;;;7.30;3.80;;;14.00;1.00;;;;;;4393150;28;652777;-72
2023/02/21 15:11:18;;;;;;;5.20;3.03;;;14.30;1.00;;;;;;4377024;28;651964;-73
2023/02/21 15:14:21;;;;;;;5.27;2.80;;;14.20;1.00;;;;;;4359170;28;652314;-73
2023/02/21 15:17:12;;;;;;;5.50;2.40;;;14.00;99.90;;;;;;4371044;28;652957;-73
2023/02/21 15:20:05;;;;;;;6.90;2.30;;;13.50;99.90;;;;;;4398515;28;653038;-73
2023/02/21 15:22:57;;;;;;;4.43;2.30;;;11.90;99.90;;;;;;4390859;28;654129;-73
2023/02/21 15:25:44;;;;;;;5.27;2.47;;;11.30;99.90;;;;;;4407611;28;654217;-73
2023/02/21 15:28:32;;;;;;;5.07;2.10;;;10.40;1.00;;;;;;4395986;28;653563;-72
2023/02/21 15:31:21;;;;;;;4.07;2.30;;;10.00;1.00;;;;;;4388462;28;652631;-73
2023/02/21 15:34:15;;;;;;;5.60;3.00;;;9.70;1.00;;;;;;4361452;28;653069;-72
2023/02/21 15:37:06;;;;;;;6.17;2.90;;;9.40;1.00;;;;;;4223787;28;650974;-73
2023/02/21 15:39:54;;;;;;;6.57;3.80;;;9.20;1.00;;;;;;4207022;28;652274;-73
2023/02/21 15:42:41;;;;;;;8.63;3.73;;;9.00;1.00;;;;;;4384253;28;651546;-73
2023/02/21 15:45:30;;;;;;;6.97;4.03;;;8.90;1.00;;;;;;4387914;28;651276;-73
2023/02/21 15:48:18;;;;;;;6.17;3.47;;;8.90;1.00;;;;;;4397750;28;652485;-73
2023/02/21 15:51:07;;;;;;;7.33;3.80;;;8.80;1.00;;;;;;4393382;28;651574;-73
2023/02/21 15:54:08;;;;;;;5.23;3.10;;;8.80;1.00;;;;;;4416068;28;651958;-74
2023/02/21 15:57:16;;;;;;;7.17;3.27;;;8.80;1.00;;;;;;4361345;28;652791;-73
2023/02/21 16:00:26;;;;;;;6.37;3.20;;;8.60;1.00;;;;;;4398742;28;652714;-73
2023/02/21 16:03:32;;;;;;;5.87;3.10;;;8.50;1.00;;;;;;4397702;28;652397;-73
2023/02/21 16:06:21;;;;;;;6.50;3.10;;;8.50;1.00;;;;;;4389131;28;652524;-73
2023/02/21 16:09:23;;;;;;;5.37;2.87;;;8.50;1.00;;;;;;4376887;28;652230;-73
2023/02/21 16:12:22;;;;;;;5.23;2.93;;;8.40;1.00;;;;;;4382689;28;652862;-73
2023/02/21 16:15:19;;;;;;;5.30;2.80;;;8.40;1.00;;;;;;4390527;28;653608;-73
2023/02/21 16:18:08;;;;;;;5.23;2.67;;;8.40;1.00;;;;;;4406396;28;652482;-73
2023/02/21 16:21:01;;;;;;;7.13;2.90;;;8.40;1.00;;;;;;4410191;28;652130;-73
2023/02/21 16:23:48;;;;;;;6.57;2.80;;;8.30;1.00;;;;;;4404015;28;652921;-74
2023/02/21 16:26:35;;;;;;;6.60;3.13;;;8.30;1.00;;;;;;4388160;28;653052;-74
2023/02/21 16:29:22;;;;;;;6.17;2.83;;;8.30;1.00;;;;;;4414622;28;652860;-73
2023/02/21 16:32:15;;;;;;;5.70;3.30;;;8.20;1.00;;;;;;4405825;28;653595;-74
2023/02/21 16:35:02;;;;;;;7.27;3.23;;;8.20;1.00;;;;;;4394799;28;652710;-73
2023/02/21 16:37:53;;;;;;;5.73;3.03;;;8.20;1.00;;;;;;4409566;28;652584;-73
2023/02/21 16:40:40;;;;;;;7.33;3.27;;;8.20;1.00;;;;;;4409949;28;652600;-73
2023/02/21 16:43:28;;;;;;;5.70;3.10;;;8.10;1.00;;;;;;4413042;28;653650;-73
2023/02/21 16:46:16;;;;;;;5.47;3.33;;;8.00;1.00;;;;;;4389425;28;651972;-74
2023/02/21 16:49:03;;;;;;;7.80;4.00;;;7.90;1.00;;;;;;4419183;28;653392;-74
2023/02/21 16:51:50;;;;;;;8.60;4.60;;;7.90;1.00;;;;;;4383015;28;652321;-73
2023/02/21 16:54:39;;;;;;;8.23;4.83;;;7.80;1.00;;;;;;4411298;28;653284;-73
2023/02/21 16:57:26;;;;;;;12.17;4.97;;;7.80;1.00;;;;;;4399966;28;652352;-74
2023/02/21 17:00:14;;;;;;;9.00;5.30;;;7.70;1.00;;;;;;4404279;28;654109;-73
2023/02/21 17:03:02;;;;;;;10.20;5.33;;;7.70;1.00;;;;;;4385013;28;653014;-74
2023/02/21 17:05:50;;;;;;;10.47;5.40;;;7.70;1.00;;;;;;4408559;28;653544;-73
2023/02/21 17:08:37;;;;;;;11.83;5.80;;;7.70;1.00;;;;;;4392658;28;653866;-74